sensor_id;sensor_type;location;lat;lon;timestamp;temperature;humidity
55211;DHT22;41082;52.822;6.666;2023-05-02T00:01:26;12.10;99.90
55211;DHT22;41082;52.822;6.666;2023-05-02T00:03:51;12.10;99.90
55211;DHT22;41082;52.822;6.666;2023-05-02T00:06:17;12.10;99.90
55211;DHT22;41082;52.822;6.666;2023-05-02T00:08:43;12.10;99.90
55211;DHT22;41082;52.822;6.666;2023-05-02T00:11:09;12.10;99.90
55211;DHT22;41082;52.822;6.666;2023-05-02T00:13:34;12.10;99.90
55211;DHT22;41082;52.822;6.666;2023-05-02T00:16:00;12.20;99.90
55211;DHT22;41082;52.822;6.666;2023-05-02T00:18:25;12.10;99.90
55211;DHT22;41082;52.822;6.666;2023-05-02T00:20:51;12.20;99.90
55211;DHT22;41082;52.822;6.666;2023-05-02T00:23:17;12.10;99.90
55211;DHT22;41082;52.822;6.666;2023-05-02T00:25:45;12.10;99.90
55211;DHT22;41082;52.822;6.666;2023-05-02T00:28:11;12.10;99.90
55211;DHT22;41082;52.822;6.666;2023-05-02T00:30:42;12.10;99.90
55211;DHT22;41082;52.822;6.666;2023-05-02T00:33:08;12.10;99.90
55211;DHT22;41082;52.822;6.666;2023-05-02T00:35:33;12.00;99.90
55211;DHT22;41082;52.822;6.666;2023-05-02T00:37:59;12.00;99.90
55211;DHT22;41082;52.822;6.666;2023-05-02T00:40:25;12.00;99.90
55211;DHT22;41082;52.822;6.666;2023-05-02T00:42:51;11.90;99.90
55211;DHT22;41082;52.822;6.666;2023-05-02T00:45:16;11.90;99.90
55211;DHT22;41082;52.822;6.666;2023-05-02T00:47:42;11.80;99.90
55211;DHT22;41082;52.822;6.666;2023-05-02T00:50:08;11.80;99.90
55211;DHT22;41082;52.822;6.666;2023-05-02T00:52:34;11.80;99.90
55211;DHT22;41082;52.822;6.666;2023-05-02T00:55:00;11.80;99.90
55211;DHT22;41082;52.822;6.666;2023-05-02T00:57:26;11.80;99.90
55211;DHT22;41082;52.822;6.666;2023-05-02T00:59:52;11.80;99.90
55211;DHT22;41082;52.822;6.666;2023-05-02T01:05:28;11.80;99.90
55211;DHT22;41082;52.822;6.666;2023-05-02T01:10:35;11.70;99.90
55211;DHT22;41082;52.822;6.666;2023-05-02T01:16:09;11.70;99.90
55211;DHT22;41082;52.822;6.666;2023-05-02T01:18:38;11.70;99.90
55211;DHT22;41082;52.822;6.666;2023-05-02T01:21:09;11.60;99.90
55211;DHT22;41082;52.822;6.666;2023-05-02T01:23:45;11.60;99.90
55211;DHT22;41082;52.822;6.666;2023-05-02T01:26:26;11.60;99.90
55211;DHT22;41082;52.822;6.666;2023-05-02T01:31:33;11.60;99.90
55211;DHT22;41082;52.822;6.666;2023-05-02T01:34:00;11.50;99.90
55211;DHT22;41082;52.822;6.666;2023-05-02T01:36:29;11.50;99.90
55211;DHT22;41082;52.822;6.666;2023-05-02T01:38:56;11.60;99.90
55211;DHT22;41082;52.822;6.666;2023-05-02T01:41:25;11.50;99.90
55211;DHT22;41082;52.822;6.666;2023-05-02T01:43:56;11.50;99.90
55211;DHT22;41082;52.822;6.666;2023-05-02T01:46:27;11.60;99.90
55211;DHT22;41082;52.822;6.666;2023-05-02T01:48:56;11.60;99.90
55211;DHT22;41082;52.822;6.666;2023-05-02T01:51:27;11.50;99.90
55211;DHT22;41082;52.822;6.666;2023-05-02T01:53:58;11.60;99.90
55211;DHT22;41082;52.822;6.666;2023-05-02T01:56:26;11.50;99.90
55211;DHT22;41082;52.822;6.666;2023-05-02T01:58:54;11.50;99.90
55211;DHT22;41082;52.822;6.666;2023-05-02T02:01:23;11.50;99.90
55211;DHT22;41082;52.822;6.666;2023-05-02T02:03:53;11.50;99.90
55211;DHT22;41082;52.822;6.666;2023-05-02T02:06:20;11.40;99.90
55211;DHT22;41082;52.822;6.666;2023-05-02T02:08:46;11.40;99.90
55211;DHT22;41082;52.822;6.666;2023-05-02T02:11:16;11.40;99.90
55211;DHT22;41082;52.822;6.666;2023-05-02T02:13:45;11.30;99.90
55211;DHT22;41082;52.822;6.666;2023-05-02T02:16:13;11.30;99.90
55211;DHT22;41082;52.822;6.666;2023-05-02T02:18:43;11.30;99.90
55211;DHT22;41082;52.822;6.666;2023-05-02T02:21:11;11.30;99.90
55211;DHT22;41082;52.822;6.666;2023-05-02T02:23:38;11.20;99.90
55211;DHT22;41082;52.822;6.666;2023-05-02T02:26:08;11.20;99.90
55211;DHT22;41082;52.822;6.666;2023-05-02T02:28:34;11.20;99.90
55211;DHT22;41082;52.822;6.666;2023-05-02T02:31:00;11.10;99.90
55211;DHT22;41082;52.822;6.666;2023-05-02T02:33:29;11.10;99.90
55211;DHT22;41082;52.822;6.666;2023-05-02T02:36:43;11.10;99.90
55211;DHT22;41082;52.822;6.666;2023-05-02T02:39:17;11.10;99.90
55211;DHT22;41082;52.822;6.666;2023-05-02T02:42:06;11.00;99.90
55211;DHT22;41082;52.822;6.666;2023-05-02T02:45:00;11.00;99.90
55211;DHT22;41082;52.822;6.666;2023-05-02T02:47:43;11.00;99.90
55211;DHT22;41082;52.822;6.666;2023-05-02T02:52:48;10.80;99.90
55211;DHT22;41082;52.822;6.666;2023-05-02T02:55:39;10.70;99.90
55211;DHT22;41082;52.822;6.666;2023-05-02T03:01:04;10.60;99.90
55211;DHT22;41082;52.822;6.666;2023-05-02T03:03:31;10.50;99.90
55211;DHT22;41082;52.822;6.666;2023-05-02T03:05:58;10.40;99.90
55211;DHT22;41082;52.822;6.666;2023-05-02T03:08:24;10.40;99.90
55211;DHT22;41082;52.822;6.666;2023-05-02T03:10:49;10.40;99.90
55211;DHT22;41082;52.822;6.666;2023-05-02T03:13:15;10.30;99.90
55211;DHT22;41082;52.822;6.666;2023-05-02T03:18:15;10.30;99.90
55211;DHT22;41082;52.822;6.666;2023-05-02T03:20:41;10.30;99.90
55211;DHT22;41082;52.822;6.666;2023-05-02T03:23:06;10.20;99.90
55211;DHT22;41082;52.822;6.666;2023-05-02T03:25:32;10.20;99.90
55211;DHT22;41082;52.822;6.666;2023-05-02T03:27:58;10.20;99.90
55211;DHT22;41082;52.822;6.666;2023-05-02T03:30:23;10.10;99.90
55211;DHT22;41082;52.822;6.666;2023-05-02T03:32:49;10.10;99.90
55211;DHT22;41082;52.822;6.666;2023-05-02T03:35:14;10.00;99.90
55211;DHT22;41082;52.822;6.666;2023-05-02T03:37:40;10.00;99.90
55211;DHT22;41082;52.822;6.666;2023-05-02T03:40:06;9.90;99.90
55211;DHT22;41082;52.822;6.666;2023-05-02T03:42:34;9.90;99.90
55211;DHT22;41082;52.822;6.666;2023-05-02T03:45:06;9.80;99.90
55211;DHT22;41082;52.822;6.666;2023-05-02T03:47:32;9.70;99.90
55211;DHT22;41082;52.822;6.666;2023-05-02T03:49:58;9.60;99.90
55211;DHT22;41082;52.822;6.666;2023-05-02T03:52:24;9.50;99.90
55211;DHT22;41082;52.822;6.666;2023-05-02T03:54:50;9.50;99.90
55211;DHT22;41082;52.822;6.666;2023-05-02T03:57:16;9.50;99.90
55211;DHT22;41082;52.822;6.666;2023-05-02T03:59:42;9.40;99.90
55211;DHT22;41082;52.822;6.666;2023-05-02T04:02:10;9.40;99.90
55211;DHT22;41082;52.822;6.666;2023-05-02T04:04:36;9.40;99.90
55211;DHT22;41082;52.822;6.666;2023-05-02T04:07:02;9.40;99.90
55211;DHT22;41082;52.822;6.666;2023-05-02T04:09:28;9.40;99.90
55211;DHT22;41082;52.822;6.666;2023-05-02T04:11:54;9.40;99.90
55211;DHT22;41082;52.822;6.666;2023-05-02T04:14:20;9.40;99.90
55211;DHT22;41082;52.822;6.666;2023-05-02T04:16:49;9.40;99.90
55211;DHT22;41082;52.822;6.666;2023-05-02T04:19:15;9.30;99.90
55211;DHT22;41082;52.822;6.666;2023-05-02T04:21:42;9.30;99.90
55211;DHT22;41082;52.822;6.666;2023-05-02T04:24:08;9.30;99.90
55211;DHT22;41082;52.822;6.666;2023-05-02T04:26:34;9.30;99.90
55211;DHT22;41082;52.822;6.666;2023-05-02T04:29:00;9.20;99.90
55211;DHT22;41082;52.822;6.666;2023-05-02T04:31:25;9.30;99.90
55211;DHT22;41082;52.822;6.666;2023-05-02T04:33:51;9.20;99.90
55211;DHT22;41082;52.822;6.666;2023-05-02T04:36:17;9.30;99.90
55211;DHT22;41082;52.822;6.666;2023-05-02T04:38:43;9.20;99.90
55211;DHT22;41082;52.822;6.666;2023-05-02T04:41:09;9.20;99.90
55211;DHT22;41082;52.822;6.666;2023-05-02T04:43:35;9.20;99.90
55211;DHT22;41082;52.822;6.666;2023-05-02T04:46:01;9.20;99.90
55211;DHT22;41082;52.822;6.666;2023-05-02T04:48:26;9.20;99.90
55211;DHT22;41082;52.822;6.666;2023-05-02T04:50:52;9.20;99.90
55211;DHT22;41082;52.822;6.666;2023-05-02T04:53:20;9.20;99.90
55211;DHT22;41082;52.822;6.666;2023-05-02T04:55:45;9.20;99.90
55211;DHT22;41082;52.822;6.666;2023-05-02T04:58:11;9.20;99.90
55211;DHT22;41082;52.822;6.666;2023-05-02T05:00:37;9.20;99.90
55211;DHT22;41082;52.822;6.666;2023-05-02T05:03:03;9.20;99.90
55211;DHT22;41082;52.822;6.666;2023-05-02T05:05:28;9.20;99.90
55211;DHT22;41082;52.822;6.666;2023-05-02T05:07:54;9.20;99.90
55211;DHT22;41082;52.822;6.666;2023-05-02T05:10:19;9.20;99.90
55211;DHT22;41082;52.822;6.666;2023-05-02T05:12:45;9.20;99.90
55211;DHT22;41082;52.822;6.666;2023-05-02T05:15:11;9.20;99.90
55211;DHT22;41082;52.822;6.666;2023-05-02T05:17:36;9.20;99.90
55211;DHT22;41082;52.822;6.666;2023-05-02T05:20:02;9.20;99.90
55211;DHT22;41082;52.822;6.666;2023-05-02T05:22:28;9.20;99.90
55211;DHT22;41082;52.822;6.666;2023-05-02T05:24:54;9.30;99.90
55211;DHT22;41082;52.822;6.666;2023-05-02T05:27:19;9.30;99.90
55211;DHT22;41082;52.822;6.666;2023-05-02T05:29:45;9.20;99.90
55211;DHT22;41082;52.822;6.666;2023-05-02T05:32:11;9.20;99.90
55211;DHT22;41082;52.822;6.666;2023-05-02T05:34:37;9.20;99.90
55211;DHT22;41082;52.822;6.666;2023-05-02T05:37:02;9.20;99.90
55211;DHT22;41082;52.822;6.666;2023-05-02T05:39:28;9.20;99.90
55211;DHT22;41082;52.822;6.666;2023-05-02T05:41:53;9.20;99.90
55211;DHT22;41082;52.822;6.666;2023-05-02T05:44:19;9.30;99.90
55211;DHT22;41082;52.822;6.666;2023-05-02T05:46:49;9.40;99.90
55211;DHT22;41082;52.822;6.666;2023-05-02T05:49:15;9.40;99.90
55211;DHT22;41082;52.822;6.666;2023-05-02T05:51:41;9.50;99.90
55211;DHT22;41082;52.822;6.666;2023-05-02T05:54:07;9.60;99.90
55211;DHT22;41082;52.822;6.666;2023-05-02T05:56:33;9.60;99.90
55211;DHT22;41082;52.822;6.666;2023-05-02T05:58:59;9.50;99.90
55211;DHT22;41082;52.822;6.666;2023-05-02T06:01:24;9.60;99.90
55211;DHT22;41082;52.822;6.666;2023-05-02T06:03:50;9.60;99.90
55211;DHT22;41082;52.822;6.666;2023-05-02T06:06:16;9.60;99.90
55211;DHT22;41082;52.822;6.666;2023-05-02T06:08:42;9.60;99.90
55211;DHT22;41082;52.822;6.666;2023-05-02T06:11:10;9.60;99.90
55211;DHT22;41082;52.822;6.666;2023-05-02T06:13:36;9.60;99.90
55211;DHT22;41082;52.822;6.666;2023-05-02T06:16:02;9.70;99.90
55211;DHT22;41082;52.822;6.666;2023-05-02T06:18:28;9.70;99.90
55211;DHT22;41082;52.822;6.666;2023-05-02T06:20:53;9.70;99.90
55211;DHT22;41082;52.822;6.666;2023-05-02T06:23:19;9.80;99.90
55211;DHT22;41082;52.822;6.666;2023-05-02T06:25:45;9.80;99.90
55211;DHT22;41082;52.822;6.666;2023-05-02T06:28:10;9.80;99.90
55211;DHT22;41082;52.822;6.666;2023-05-02T06:30:36;9.90;99.90
55211;DHT22;41082;52.822;6.666;2023-05-02T06:33:05;9.90;99.90
55211;DHT22;41082;52.822;6.666;2023-05-02T06:35:30;9.90;99.90
55211;DHT22;41082;52.822;6.666;2023-05-02T06:37:56;10.00;99.90
55211;DHT22;41082;52.822;6.666;2023-05-02T06:40:21;10.00;99.90
55211;DHT22;41082;52.822;6.666;2023-05-02T06:42:47;10.10;99.90
55211;DHT22;41082;52.822;6.666;2023-05-02T06:45:13;10.10;99.90
55211;DHT22;41082;52.822;6.666;2023-05-02T06:47:38;10.10;99.90
55211;DHT22;41082;52.822;6.666;2023-05-02T06:50:04;10.10;99.90
55211;DHT22;41082;52.822;6.666;2023-05-02T06:52:30;10.10;99.90
55211;DHT22;41082;52.822;6.666;2023-05-02T06:54:56;10.10;99.90
55211;DHT22;41082;52.822;6.666;2023-05-02T06:57:21;10.10;99.90
55211;DHT22;41082;52.822;6.666;2023-05-02T06:59:47;10.10;99.90
55211;DHT22;41082;52.822;6.666;2023-05-02T07:02:12;10.10;99.90
55211;DHT22;41082;52.822;6.666;2023-05-02T07:04:38;10.10;99.90
55211;DHT22;41082;52.822;6.666;2023-05-02T07:07:03;10.10;99.90
55211;DHT22;41082;52.822;6.666;2023-05-02T07:09:29;10.20;99.90
55211;DHT22;41082;52.822;6.666;2023-05-02T07:11:54;10.20;99.90
55211;DHT22;41082;52.822;6.666;2023-05-02T07:14:20;10.10;99.90
55211;DHT22;41082;52.822;6.666;2023-05-02T07:16:46;10.20;99.90
55211;DHT22;41082;52.822;6.666;2023-05-02T07:19:11;10.30;99.90
55211;DHT22;41082;52.822;6.666;2023-05-02T07:21:37;10.30;99.90
55211;DHT22;41082;52.822;6.666;2023-05-02T07:24:03;10.40;99.90
55211;DHT22;41082;52.822;6.666;2023-05-02T07:26:28;10.40;99.90
55211;DHT22;41082;52.822;6.666;2023-05-02T07:28:54;10.50;99.90
55211;DHT22;41082;52.822;6.666;2023-05-02T07:31:20;10.60;99.90
55211;DHT22;41082;52.822;6.666;2023-05-02T07:33:45;10.60;99.90
55211;DHT22;41082;52.822;6.666;2023-05-02T07:36:11;10.70;99.90
55211;DHT22;41082;52.822;6.666;2023-05-02T07:38:37;10.80;99.90
55211;DHT22;41082;52.822;6.666;2023-05-02T07:41:02;10.80;99.90
55211;DHT22;41082;52.822;6.666;2023-05-02T07:43:28;10.90;99.90
55211;DHT22;41082;52.822;6.666;2023-05-02T07:45:53;10.80;99.90
55211;DHT22;41082;52.822;6.666;2023-05-02T07:48:19;10.90;99.90
55211;DHT22;41082;52.822;6.666;2023-05-02T07:50:45;10.90;99.90
55211;DHT22;41082;52.822;6.666;2023-05-02T07:53:10;11.00;99.90
55211;DHT22;41082;52.822;6.666;2023-05-02T07:55:36;11.00;99.90
55211;DHT22;41082;52.822;6.666;2023-05-02T07:58:02;11.00;99.90
55211;DHT22;41082;52.822;6.666;2023-05-02T08:00:28;11.10;99.90
55211;DHT22;41082;52.822;6.666;2023-05-02T08:02:54;11.10;99.90
55211;DHT22;41082;52.822;6.666;2023-05-02T08:05:20;11.10;99.90
55211;DHT22;41082;52.822;6.666;2023-05-02T08:07:46;11.10;99.90
55211;DHT22;41082;52.822;6.666;2023-05-02T08:10:11;11.10;99.90
55211;DHT22;41082;52.822;6.666;2023-05-02T08:12:41;11.10;99.90
55211;DHT22;41082;52.822;6.666;2023-05-02T08:15:08;11.10;99.90
55211;DHT22;41082;52.822;6.666;2023-05-02T08:17:34;11.10;99.90
55211;DHT22;41082;52.822;6.666;2023-05-02T08:20:00;11.20;99.90
55211;DHT22;41082;52.822;6.666;2023-05-02T08:22:25;11.20;99.60
55211;DHT22;41082;52.822;6.666;2023-05-02T08:24:51;11.20;99.20
55211;DHT22;41082;52.822;6.666;2023-05-02T08:27:17;11.30;98.80
55211;DHT22;41082;52.822;6.666;2023-05-02T08:29:42;11.40;98.70
55211;DHT22;41082;52.822;6.666;2023-05-02T08:32:08;11.50;98.70
55211;DHT22;41082;52.822;6.666;2023-05-02T08:34:33;11.60;98.80
55211;DHT22;41082;52.822;6.666;2023-05-02T08:36:59;11.60;98.40
55211;DHT22;41082;52.822;6.666;2023-05-02T08:39:24;11.60;97.90
55211;DHT22;41082;52.822;6.666;2023-05-02T08:41:50;11.70;97.70
55211;DHT22;41082;52.822;6.666;2023-05-02T08:44:16;11.70;96.40
55211;DHT22;41082;52.822;6.666;2023-05-02T08:46:42;11.80;95.40
55211;DHT22;41082;52.822;6.666;2023-05-02T08:49:10;11.90;95.40
55211;DHT22;41082;52.822;6.666;2023-05-02T08:51:36;12.00;95.30
55211;DHT22;41082;52.822;6.666;2023-05-02T08:54:02;12.10;95.60
55211;DHT22;41082;52.822;6.666;2023-05-02T08:56:28;12.20;96.00
55211;DHT22;41082;52.822;6.666;2023-05-02T08:58:54;12.20;96.10
55211;DHT22;41082;52.822;6.666;2023-05-02T09:01:22;12.30;95.80
55211;DHT22;41082;52.822;6.666;2023-05-02T09:03:48;12.30;94.90
55211;DHT22;41082;52.822;6.666;2023-05-02T09:06:18;12.30;94.90
55211;DHT22;41082;52.822;6.666;2023-05-02T09:08:46;12.40;94.30
55211;DHT22;41082;52.822;6.666;2023-05-02T09:11:17;12.50;94.60
55211;DHT22;41082;52.822;6.666;2023-05-02T09:18:43;12.90;93.40
55211;DHT22;41082;52.822;6.666;2023-05-02T09:21:20;13.00;91.70
55211;DHT22;41082;52.822;6.666;2023-05-02T09:23:51;13.10;91.30
55211;DHT22;41082;52.822;6.666;2023-05-02T09:26:21;13.20;89.40
55211;DHT22;41082;52.822;6.666;2023-05-02T09:28:52;13.20;81.70
55211;DHT22;41082;52.822;6.666;2023-05-02T09:31:19;13.10;80.20
55211;DHT22;41082;52.822;6.666;2023-05-02T09:33:46;13.00;83.10
55211;DHT22;41082;52.822;6.666;2023-05-02T09:36:16;12.80;83.80
55211;DHT22;41082;52.822;6.666;2023-05-02T09:38:43;12.90;83.80
55211;DHT22;41082;52.822;6.666;2023-05-02T09:41:09;12.90;82.20
55211;DHT22;41082;52.822;6.666;2023-05-02T09:43:35;12.90;84.00
55211;DHT22;41082;52.822;6.666;2023-05-02T09:46:04;12.80;86.20
55211;DHT22;41082;52.822;6.666;2023-05-02T09:48:32;12.90;87.80
55211;DHT22;41082;52.822;6.666;2023-05-02T09:50:58;13.00;88.70
55211;DHT22;41082;52.822;6.666;2023-05-02T09:53:25;13.00;90.00
55211;DHT22;41082;52.822;6.666;2023-05-02T09:56:02;13.10;89.60
55211;DHT22;41082;52.822;6.666;2023-05-02T09:58:28;13.20;90.00
55211;DHT22;41082;52.822;6.666;2023-05-02T10:00:56;13.40;89.80
55211;DHT22;41082;52.822;6.666;2023-05-02T10:03:23;13.50;88.10
55211;DHT22;41082;52.822;6.666;2023-05-02T10:05:48;13.50;86.50
55211;DHT22;41082;52.822;6.666;2023-05-02T10:08:15;13.60;84.70
55211;DHT22;41082;52.822;6.666;2023-05-02T10:10:46;13.60;85.30
55211;DHT22;41082;52.822;6.666;2023-05-02T10:13:16;13.70;85.10
55211;DHT22;41082;52.822;6.666;2023-05-02T10:15:44;13.80;85.00
55211;DHT22;41082;52.822;6.666;2023-05-02T10:18:14;13.90;85.40
55211;DHT22;41082;52.822;6.666;2023-05-02T10:20:55;14.00;85.40
55211;DHT22;41082;52.822;6.666;2023-05-02T10:23:24;14.10;80.50
55211;DHT22;41082;52.822;6.666;2023-05-02T10:25:50;14.10;75.10
55211;DHT22;41082;52.822;6.666;2023-05-02T10:28:16;14.20;73.70
55211;DHT22;41082;52.822;6.666;2023-05-02T10:30:42;14.20;70.90
55211;DHT22;41082;52.822;6.666;2023-05-02T10:33:08;14.30;70.00
55211;DHT22;41082;52.822;6.666;2023-05-02T10:35:35;14.30;71.80
55211;DHT22;41082;52.822;6.666;2023-05-02T10:38:01;14.30;69.80
55211;DHT22;41082;52.822;6.666;2023-05-02T10:40:27;14.30;71.30
55211;DHT22;41082;52.822;6.666;2023-05-02T10:42:54;14.40;70.60
55211;DHT22;41082;52.822;6.666;2023-05-02T10:48:18;14.70;70.70
55211;DHT22;41082;52.822;6.666;2023-05-02T10:50:59;14.80;72.10
55211;DHT22;41082;52.822;6.666;2023-05-02T10:53:35;15.00;70.50
55211;DHT22;41082;52.822;6.666;2023-05-02T10:56:21;15.10;71.10
55211;DHT22;41082;52.822;6.666;2023-05-02T10:58:51;15.20;70.80
55211;DHT22;41082;52.822;6.666;2023-05-02T11:03:59;15.20;70.40
55211;DHT22;41082;52.822;6.666;2023-05-02T11:06:29;15.10;69.40
55211;DHT22;41082;52.822;6.666;2023-05-02T11:11:45;15.10;70.40
55211;DHT22;41082;52.822;6.666;2023-05-02T11:20:17;15.00;65.10
55211;DHT22;41082;52.822;6.666;2023-05-02T11:24:45;15.00;63.40
55211;DHT22;41082;52.822;6.666;2023-05-02T11:29:56;15.00;63.50
55211;DHT22;41082;52.822;6.666;2023-05-02T11:32:23;14.90;63.60
55211;DHT22;41082;52.822;6.666;2023-05-02T11:34:50;14.90;64.90
55211;DHT22;41082;52.822;6.666;2023-05-02T11:37:18;14.90;66.60
55211;DHT22;41082;52.822;6.666;2023-05-02T11:39:44;15.00;66.80
55211;DHT22;41082;52.822;6.666;2023-05-02T11:42:27;15.00;67.00
55211;DHT22;41082;52.822;6.666;2023-05-02T11:44:57;15.20;66.90
55211;DHT22;41082;52.822;6.666;2023-05-02T11:47:25;15.20;66.40
55211;DHT22;41082;52.822;6.666;2023-05-02T11:49:51;15.20;66.60
55211;DHT22;41082;52.822;6.666;2023-05-02T11:52:17;15.10;66.30
55211;DHT22;41082;52.822;6.666;2023-05-02T11:54:42;15.10;66.50
55211;DHT22;41082;52.822;6.666;2023-05-02T11:57:08;15.00;66.40
55211;DHT22;41082;52.822;6.666;2023-05-02T11:59:53;15.10;66.00
55211;DHT22;41082;52.822;6.666;2023-05-02T12:02:19;15.10;66.40
55211;DHT22;41082;52.822;6.666;2023-05-02T12:04:47;15.10;66.10
55211;DHT22;41082;52.822;6.666;2023-05-02T12:07:13;15.10;66.30
55211;DHT22;41082;52.822;6.666;2023-05-02T12:09:52;15.10;66.00
55211;DHT22;41082;52.822;6.666;2023-05-02T12:12:21;15.20;66.30
55211;DHT22;41082;52.822;6.666;2023-05-02T12:14:47;15.30;65.70
55211;DHT22;41082;52.822;6.666;2023-05-02T12:17:13;15.20;66.30
55211;DHT22;41082;52.822;6.666;2023-05-02T12:19:39;15.20;66.30
55211;DHT22;41082;52.822;6.666;2023-05-02T12:22:05;15.20;66.30
55211;DHT22;41082;52.822;6.666;2023-05-02T12:24:32;15.10;66.50
55211;DHT22;41082;52.822;6.666;2023-05-02T12:27:11;15.10;67.00
55211;DHT22;41082;52.822;6.666;2023-05-02T12:29:41;15.00;66.50
55211;DHT22;41082;52.822;6.666;2023-05-02T12:32:07;14.90;66.90
55211;DHT22;41082;52.822;6.666;2023-05-02T12:34:34;14.80;67.20
55211;DHT22;41082;52.822;6.666;2023-05-02T12:37:01;14.80;67.20
55211;DHT22;41082;52.822;6.666;2023-05-02T12:39:41;14.80;67.60
55211;DHT22;41082;52.822;6.666;2023-05-02T12:42:14;14.80;67.30
55211;DHT22;41082;52.822;6.666;2023-05-02T12:44:42;14.80;67.10
55211;DHT22;41082;52.822;6.666;2023-05-02T12:47:13;14.80;67.50
55211;DHT22;41082;52.822;6.666;2023-05-02T12:49:54;14.80;67.90
55211;DHT22;41082;52.822;6.666;2023-05-02T12:52:50;14.70;68.60
55211;DHT22;41082;52.822;6.666;2023-05-02T12:55:23;14.80;69.10
55211;DHT22;41082;52.822;6.666;2023-05-02T12:57:49;14.80;69.10
55211;DHT22;41082;52.822;6.666;2023-05-02T13:00:16;15.00;69.20
55211;DHT22;41082;52.822;6.666;2023-05-02T13:02:42;15.00;69.00
55211;DHT22;41082;52.822;6.666;2023-05-02T13:05:15;15.00;69.30
55211;DHT22;41082;52.822;6.666;2023-05-02T13:07:40;14.90;69.10
55211;DHT22;41082;52.822;6.666;2023-05-02T13:10:06;15.00;69.20
55211;DHT22;41082;52.822;6.666;2023-05-02T13:12:32;15.00;68.90
55211;DHT22;41082;52.822;6.666;2023-05-02T13:15:02;15.00;68.40
55211;DHT22;41082;52.822;6.666;2023-05-02T13:17:28;14.90;68.10
55211;DHT22;41082;52.822;6.666;2023-05-02T13:19:53;15.00;67.80
55211;DHT22;41082;52.822;6.666;2023-05-02T13:22:19;15.00;65.80
55211;DHT22;41082;52.822;6.666;2023-05-02T13:24:45;15.00;65.20
55211;DHT22;41082;52.822;6.666;2023-05-02T13:27:11;14.80;64.40
55211;DHT22;41082;52.822;6.666;2023-05-02T13:29:37;14.70;65.00
55211;DHT22;41082;52.822;6.666;2023-05-02T13:32:02;14.50;65.30
55211;DHT22;41082;52.822;6.666;2023-05-02T13:34:28;14.40;66.60
55211;DHT22;41082;52.822;6.666;2023-05-02T13:36:54;14.30;67.20
55211;DHT22;41082;52.822;6.666;2023-05-02T13:39:19;14.30;68.10
55211;DHT22;41082;52.822;6.666;2023-05-02T13:41:45;14.10;69.00
55211;DHT22;41082;52.822;6.666;2023-05-02T13:44:10;14.20;68.70
55211;DHT22;41082;52.822;6.666;2023-05-02T13:46:36;14.20;66.70
55211;DHT22;41082;52.822;6.666;2023-05-02T13:49:03;14.10;67.00
55211;DHT22;41082;52.822;6.666;2023-05-02T13:51:29;14.10;67.10
55211;DHT22;41082;52.822;6.666;2023-05-02T13:53:56;14.10;67.80
55211;DHT22;41082;52.822;6.666;2023-05-02T13:56:22;14.10;69.40
55211;DHT22;41082;52.822;6.666;2023-05-02T13:58:47;14.10;69.80
55211;DHT22;41082;52.822;6.666;2023-05-02T14:01:13;14.20;69.50
55211;DHT22;41082;52.822;6.666;2023-05-02T14:03:38;14.20;70.20
55211;DHT22;41082;52.822;6.666;2023-05-02T14:06:04;14.30;69.50
55211;DHT22;41082;52.822;6.666;2023-05-02T14:08:30;14.30;69.30
55211;DHT22;41082;52.822;6.666;2023-05-02T14:10:55;14.40;69.20
55211;DHT22;41082;52.822;6.666;2023-05-02T14:13:21;14.40;69.50
55211;DHT22;41082;52.822;6.666;2023-05-02T14:15:47;14.40;69.80
55211;DHT22;41082;52.822;6.666;2023-05-02T14:18:12;14.40;70.00
55211;DHT22;41082;52.822;6.666;2023-05-02T14:20:38;14.40;70.30
55211;DHT22;41082;52.822;6.666;2023-05-02T14:23:03;14.30;70.00
55211;DHT22;41082;52.822;6.666;2023-05-02T14:25:29;14.20;69.50
55211;DHT22;41082;52.822;6.666;2023-05-02T14:27:54;14.20;68.80
55211;DHT22;41082;52.822;6.666;2023-05-02T14:30:20;14.10;68.30
55211;DHT22;41082;52.822;6.666;2023-05-02T14:32:46;14.00;68.10
55211;DHT22;41082;52.822;6.666;2023-05-02T14:35:11;14.00;68.30
55211;DHT22;41082;52.822;6.666;2023-05-02T14:37:37;14.10;68.30
55211;DHT22;41082;52.822;6.666;2023-05-02T14:40:03;14.10;68.20
55211;DHT22;41082;52.822;6.666;2023-05-02T14:42:28;14.30;68.80
55211;DHT22;41082;52.822;6.666;2023-05-02T14:44:54;14.30;68.60
55211;DHT22;41082;52.822;6.666;2023-05-02T14:47:19;14.30;68.20
55211;DHT22;41082;52.822;6.666;2023-05-02T14:49:45;14.30;68.80
55211;DHT22;41082;52.822;6.666;2023-05-02T14:52:11;14.20;69.40
55211;DHT22;41082;52.822;6.666;2023-05-02T14:54:36;14.20;69.20
55211;DHT22;41082;52.822;6.666;2023-05-02T14:57:02;14.20;69.70
55211;DHT22;41082;52.822;6.666;2023-05-02T14:59:28;14.30;70.10
55211;DHT22;41082;52.822;6.666;2023-05-02T15:01:55;14.30;71.00
55211;DHT22;41082;52.822;6.666;2023-05-02T15:04:20;14.30;71.20
55211;DHT22;41082;52.822;6.666;2023-05-02T15:06:46;14.30;71.60
55211;DHT22;41082;52.822;6.666;2023-05-02T15:09:12;14.40;70.40
55211;DHT22;41082;52.822;6.666;2023-05-02T15:11:38;14.50;70.10
55211;DHT22;41082;52.822;6.666;2023-05-02T15:14:04;14.50;70.30
55211;DHT22;41082;52.822;6.666;2023-05-02T15:16:30;14.60;69.60
55211;DHT22;41082;52.822;6.666;2023-05-02T15:18:56;14.70;68.80
55211;DHT22;41082;52.822;6.666;2023-05-02T15:21:21;14.70;67.10
55211;DHT22;41082;52.822;6.666;2023-05-02T15:23:47;14.70;65.60
55211;DHT22;41082;52.822;6.666;2023-05-02T15:26:12;14.60;65.20
55211;DHT22;41082;52.822;6.666;2023-05-02T15:28:38;14.40;66.20
55211;DHT22;41082;52.822;6.666;2023-05-02T15:31:04;14.40;66.60
55211;DHT22;41082;52.822;6.666;2023-05-02T15:33:29;14.40;65.10
55211;DHT22;41082;52.822;6.666;2023-05-02T15:35:56;14.30;65.50
55211;DHT22;41082;52.822;6.666;2023-05-02T15:38:23;14.20;66.10
55211;DHT22;41082;52.822;6.666;2023-05-02T15:40:59;14.20;66.80
55211;DHT22;41082;52.822;6.666;2023-05-02T15:43:25;14.10;67.70
55211;DHT22;41082;52.822;6.666;2023-05-02T15:45:52;14.00;67.70
55211;DHT22;41082;52.822;6.666;2023-05-02T15:48:19;13.90;67.80
55211;DHT22;41082;52.822;6.666;2023-05-02T15:50:44;13.90;68.00
55211;DHT22;41082;52.822;6.666;2023-05-02T15:53:11;13.80;67.80
55211;DHT22;41082;52.822;6.666;2023-05-02T15:55:38;13.90;68.20
55211;DHT22;41082;52.822;6.666;2023-05-02T15:58:03;13.90;68.30
55211;DHT22;41082;52.822;6.666;2023-05-02T16:00:29;13.90;68.70
55211;DHT22;41082;52.822;6.666;2023-05-02T16:02:54;13.90;69.30
55211;DHT22;41082;52.822;6.666;2023-05-02T16:05:20;13.90;68.40
55211;DHT22;41082;52.822;6.666;2023-05-02T16:07:45;13.90;68.30
55211;DHT22;41082;52.822;6.666;2023-05-02T16:10:11;13.90;68.30
55211;DHT22;41082;52.822;6.666;2023-05-02T16:12:37;13.80;68.10
55211;DHT22;41082;52.822;6.666;2023-05-02T16:15:02;13.80;68.50
55211;DHT22;41082;52.822;6.666;2023-05-02T16:17:28;13.80;68.40
55211;DHT22;41082;52.822;6.666;2023-05-02T16:19:54;13.70;68.00